sensor_id;sensor_type;location;lat;lon;timestamp;temperature;humidity
18502;DHT22;68437;52.236;5.710;2023-07-28T00:01:59;17.80;99.90
18502;DHT22;68437;52.236;5.710;2023-07-28T00:04:25;17.80;99.90
18502;DHT22;68437;52.236;5.710;2023-07-28T00:06:52;17.80;99.90
18502;DHT22;68437;52.236;5.710;2023-07-28T00:09:19;17.80;99.90
18502;DHT22;68437;52.236;5.710;2023-07-28T00:11:46;17.80;99.90
18502;DHT22;68437;52.236;5.710;2023-07-28T00:14:13;17.80;99.90
18502;DHT22;68437;52.236;5.710;2023-07-28T00:16:40;17.80;99.90
18502;DHT22;68437;52.236;5.710;2023-07-28T00:19:08;17.80;99.90
18502;DHT22;68437;52.236;5.710;2023-07-28T00:21:35;17.80;99.90
18502;DHT22;68437;52.236;5.710;2023-07-28T00:24:02;17.80;99.90
18502;DHT22;68437;52.236;5.710;2023-07-28T00:26:29;17.80;99.90
18502;DHT22;68437;52.236;5.710;2023-07-28T00:28:56;17.80;99.90
18502;DHT22;68437;52.236;5.710;2023-07-28T00:31:24;17.80;99.90
18502;DHT22;68437;52.236;5.710;2023-07-28T00:33:51;17.80;99.90
18502;DHT22;68437;52.236;5.710;2023-07-28T00:36:19;17.90;99.90
18502;DHT22;68437;52.236;5.710;2023-07-28T00:38:46;17.90;99.90
18502;DHT22;68437;52.236;5.710;2023-07-28T00:41:13;17.90;99.90
18502;DHT22;68437;52.236;5.710;2023-07-28T00:43:40;17.90;99.90
18502;DHT22;68437;52.236;5.710;2023-07-28T00:46:08;17.90;99.90
18502;DHT22;68437;52.236;5.710;2023-07-28T00:48:35;18.00;99.90
18502;DHT22;68437;52.236;5.710;2023-07-28T00:51:02;17.90;99.90
18502;DHT22;68437;52.236;5.710;2023-07-28T00:53:31;17.90;99.90
18502;DHT22;68437;52.236;5.710;2023-07-28T00:55:59;17.90;99.90
18502;DHT22;68437;52.236;5.710;2023-07-28T00:58:26;17.90;99.90
18502;DHT22;68437;52.236;5.710;2023-07-28T01:00:53;17.90;99.90
18502;DHT22;68437;52.236;5.710;2023-07-28T01:03:20;17.90;99.90
18502;DHT22;68437;52.236;5.710;2023-07-28T01:05:55;17.90;99.90
18502;DHT22;68437;52.236;5.710;2023-07-28T01:08:29;18.00;99.90
18502;DHT22;68437;52.236;5.710;2023-07-28T01:10:58;18.00;99.90
18502;DHT22;68437;52.236;5.710;2023-07-28T01:13:25;17.90;99.90
18502;DHT22;68437;52.236;5.710;2023-07-28T01:15:52;17.90;99.90
18502;DHT22;68437;52.236;5.710;2023-07-28T01:18:19;17.90;99.90
18502;DHT22;68437;52.236;5.710;2023-07-28T01:20:46;17.90;99.90
18502;DHT22;68437;52.236;5.710;2023-07-28T01:23:19;17.90;99.90
18502;DHT22;68437;52.236;5.710;2023-07-28T01:25:55;17.90;99.90
18502;DHT22;68437;52.236;5.710;2023-07-28T01:28:27;17.90;99.90
18502;DHT22;68437;52.236;5.710;2023-07-28T01:30:53;18.00;99.90
18502;DHT22;68437;52.236;5.710;2023-07-28T01:33:20;17.90;99.90
18502;DHT22;68437;52.236;5.710;2023-07-28T01:35:47;17.90;99.90
18502;DHT22;68437;52.236;5.710;2023-07-28T01:38:14;17.90;99.90
18502;DHT22;68437;52.236;5.710;2023-07-28T01:40:41;18.00;99.90
18502;DHT22;68437;52.236;5.710;2023-07-28T01:43:08;18.00;99.90
18502;DHT22;68437;52.236;5.710;2023-07-28T01:45:36;18.00;99.90
18502;DHT22;68437;52.236;5.710;2023-07-28T01:48:04;17.90;99.90
18502;DHT22;68437;52.236;5.710;2023-07-28T01:50:31;18.00;99.90
18502;DHT22;68437;52.236;5.710;2023-07-28T01:52:58;18.00;99.90
18502;DHT22;68437;52.236;5.710;2023-07-28T01:55:25;18.00;99.90
18502;DHT22;68437;52.236;5.710;2023-07-28T01:57:55;18.00;99.90
18502;DHT22;68437;52.236;5.710;2023-07-28T02:00:22;18.00;99.90
18502;DHT22;68437;52.236;5.710;2023-07-28T02:02:51;17.90;99.90
18502;DHT22;68437;52.236;5.710;2023-07-28T02:05:18;17.90;99.90
18502;DHT22;68437;52.236;5.710;2023-07-28T02:07:46;17.90;99.90
18502;DHT22;68437;52.236;5.710;2023-07-28T02:10:13;17.90;99.90
18502;DHT22;68437;52.236;5.710;2023-07-28T02:12:40;17.90;99.90
18502;DHT22;68437;52.236;5.710;2023-07-28T02:15:07;18.00;99.90
18502;DHT22;68437;52.236;5.710;2023-07-28T02:17:34;18.00;99.90
18502;DHT22;68437;52.236;5.710;2023-07-28T02:20:03;18.00;99.90
18502;DHT22;68437;52.236;5.710;2023-07-28T02:22:30;17.90;99.90
18502;DHT22;68437;52.236;5.710;2023-07-28T02:24:57;17.90;99.90
18502;DHT22;68437;52.236;5.710;2023-07-28T02:27:27;17.90;99.90
18502;DHT22;68437;52.236;5.710;2023-07-28T02:29:54;17.90;99.90
18502;DHT22;68437;52.236;5.710;2023-07-28T02:32:21;18.00;99.90
18502;DHT22;68437;52.236;5.710;2023-07-28T02:34:48;17.90;99.90
18502;DHT22;68437;52.236;5.710;2023-07-28T02:37:16;17.90;99.90
18502;DHT22;68437;52.236;5.710;2023-07-28T02:39:43;18.00;99.90
18502;DHT22;68437;52.236;5.710;2023-07-28T02:42:11;18.00;99.90
18502;DHT22;68437;52.236;5.710;2023-07-28T02:44:38;18.00;99.90
18502;DHT22;68437;52.236;5.710;2023-07-28T02:47:05;18.00;99.90
18502;DHT22;68437;52.236;5.710;2023-07-28T02:49:32;18.00;99.90
18502;DHT22;68437;52.236;5.710;2023-07-28T02:51:59;18.00;99.90
18502;DHT22;68437;52.236;5.710;2023-07-28T02:54:27;18.00;99.90
18502;DHT22;68437;52.236;5.710;2023-07-28T02:56:54;18.00;99.90
18502;DHT22;68437;52.236;5.710;2023-07-28T02:59:21;18.00;99.90
18502;DHT22;68437;52.236;5.710;2023-07-28T03:01:48;17.90;99.90
18502;DHT22;68437;52.236;5.710;2023-07-28T03:04:17;17.90;99.90
18502;DHT22;68437;52.236;5.710;2023-07-28T03:06:45;17.90;99.90
18502;DHT22;68437;52.236;5.710;2023-07-28T03:09:15;18.00;99.90
18502;DHT22;68437;52.236;5.710;2023-07-28T03:11:43;18.00;99.90
18502;DHT22;68437;52.236;5.710;2023-07-28T03:14:10;17.90;99.90
18502;DHT22;68437;52.236;5.710;2023-07-28T03:16:38;17.90;99.90
18502;DHT22;68437;52.236;5.710;2023-07-28T03:19:05;18.00;99.90
18502;DHT22;68437;52.236;5.710;2023-07-28T03:21:32;17.90;99.90
18502;DHT22;68437;52.236;5.710;2023-07-28T03:23:59;18.00;99.90
18502;DHT22;68437;52.236;5.710;2023-07-28T03:26:26;17.90;99.90
18502;DHT22;68437;52.236;5.710;2023-07-28T03:28:54;18.00;99.90
18502;DHT22;68437;52.236;5.710;2023-07-28T03:31:21;18.00;99.90
18502;DHT22;68437;52.236;5.710;2023-07-28T03:33:48;17.90;99.90
18502;DHT22;68437;52.236;5.710;2023-07-28T03:36:15;17.90;99.90
18502;DHT22;68437;52.236;5.710;2023-07-28T03:38:42;17.90;99.90
18502;DHT22;68437;52.236;5.710;2023-07-28T03:41:09;17.90;99.90
18502;DHT22;68437;52.236;5.710;2023-07-28T03:43:36;17.90;99.90
18502;DHT22;68437;52.236;5.710;2023-07-28T03:46:04;17.90;99.90
18502;DHT22;68437;52.236;5.710;2023-07-28T03:48:31;17.90;99.90
18502;DHT22;68437;52.236;5.710;2023-07-28T03:50:57;17.90;99.90
18502;DHT22;68437;52.236;5.710;2023-07-28T03:53:24;17.90;99.90
18502;DHT22;68437;52.236;5.710;2023-07-28T03:55:51;17.90;99.90
18502;DHT22;68437;52.236;5.710;2023-07-28T03:58:19;17.90;99.90
18502;DHT22;68437;52.236;5.710;2023-07-28T04:00:46;17.90;99.90
18502;DHT22;68437;52.236;5.710;2023-07-28T04:03:14;17.90;99.90
18502;DHT22;68437;52.236;5.710;2023-07-28T04:05:41;17.90;99.90
18502;DHT22;68437;52.236;5.710;2023-07-28T04:08:08;17.90;99.90
18502;DHT22;68437;52.236;5.710;2023-07-28T04:10:35;17.90;99.90
18502;DHT22;68437;52.236;5.710;2023-07-28T04:13:02;18.00;99.90
18502;DHT22;68437;52.236;5.710;2023-07-28T04:15:29;18.00;99.90
18502;DHT22;68437;52.236;5.710;2023-07-28T04:17:56;18.00;99.90
18502;DHT22;68437;52.236;5.710;2023-07-28T04:20:24;18.00;99.90
18502;DHT22;68437;52.236;5.710;2023-07-28T04:22:51;18.00;99.90
18502;DHT22;68437;52.236;5.710;2023-07-28T04:25:17;18.00;99.90
18502;DHT22;68437;52.236;5.710;2023-07-28T04:27:44;18.00;99.90
18502;DHT22;68437;52.236;5.710;2023-07-28T04:30:12;18.00;99.90
18502;DHT22;68437;52.236;5.710;2023-07-28T04:32:38;18.00;99.90
18502;DHT22;68437;52.236;5.710;2023-07-28T04:35:06;18.00;99.90
18502;DHT22;68437;52.236;5.710;2023-07-28T04:37:34;18.00;99.90
18502;DHT22;68437;52.236;5.710;2023-07-28T04:40:02;18.10;99.90
18502;DHT22;68437;52.236;5.710;2023-07-28T04:42:29;18.00;99.90
18502;DHT22;68437;52.236;5.710;2023-07-28T04:44:56;18.10;99.90
18502;DHT22;68437;52.236;5.710;2023-07-28T04:47:22;18.00;99.90
18502;DHT22;68437;52.236;5.710;2023-07-28T04:49:49;18.00;99.90
18502;DHT22;68437;52.236;5.710;2023-07-28T04:52:16;18.00;99.90
18502;DHT22;68437;52.236;5.710;2023-07-28T04:54:44;18.00;99.90
18502;DHT22;68437;52.236;5.710;2023-07-28T04:57:12;18.10;99.90
18502;DHT22;68437;52.236;5.710;2023-07-28T04:59:39;18.10;99.90
18502;DHT22;68437;52.236;5.710;2023-07-28T05:02:06;18.10;99.90
18502;DHT22;68437;52.236;5.710;2023-07-28T05:04:33;18.10;99.90
18502;DHT22;68437;52.236;5.710;2023-07-28T05:07:01;18.10;99.90
18502;DHT22;68437;52.236;5.710;2023-07-28T05:09:28;18.10;99.90
18502;DHT22;68437;52.236;5.710;2023-07-28T05:11:57;18.10;99.90
18502;DHT22;68437;52.236;5.710;2023-07-28T05:14:23;18.10;99.90
18502;DHT22;68437;52.236;5.710;2023-07-28T05:16:50;18.10;99.90
18502;DHT22;68437;52.236;5.710;2023-07-28T05:19:17;18.10;99.90
18502;DHT22;68437;52.236;5.710;2023-07-28T05:21:44;18.10;99.90
18502;DHT22;68437;52.236;5.710;2023-07-28T05:24:11;18.10;99.90
18502;DHT22;68437;52.236;5.710;2023-07-28T05:26:37;18.10;99.90
18502;DHT22;68437;52.236;5.710;2023-07-28T05:29:06;18.10;99.90
18502;DHT22;68437;52.236;5.710;2023-07-28T05:31:32;18.10;99.90
18502;DHT22;68437;52.236;5.710;2023-07-28T05:33:59;18.10;99.90
18502;DHT22;68437;52.236;5.710;2023-07-28T05:36:26;18.10;99.90
18502;DHT22;68437;52.236;5.710;2023-07-28T05:38:54;18.10;99.90
18502;DHT22;68437;52.236;5.710;2023-07-28T05:41:22;18.10;99.90
18502;DHT22;68437;52.236;5.710;2023-07-28T05:43:49;18.10;99.90
18502;DHT22;68437;52.236;5.710;2023-07-28T05:46:18;18.10;99.90
18502;DHT22;68437;52.236;5.710;2023-07-28T05:48:45;18.10;99.90
18502;DHT22;68437;52.236;5.710;2023-07-28T05:51:12;18.10;99.90
18502;DHT22;68437;52.236;5.710;2023-07-28T05:53:38;18.20;99.90
18502;DHT22;68437;52.236;5.710;2023-07-28T05:56:05;18.20;99.90
18502;DHT22;68437;52.236;5.710;2023-07-28T05:58:32;18.20;99.90
18502;DHT22;68437;52.236;5.710;2023-07-28T06:00:59;18.20;99.90
18502;DHT22;68437;52.236;5.710;2023-07-28T06:03:28;18.20;99.90
18502;DHT22;68437;52.236;5.710;2023-07-28T06:05:56;18.20;99.90
18502;DHT22;68437;52.236;5.710;2023-07-28T06:08:23;18.20;99.90
18502;DHT22;68437;52.236;5.710;2023-07-28T06:10:50;18.20;99.90
18502;DHT22;68437;52.236;5.710;2023-07-28T06:13:16;18.20;99.90
18502;DHT22;68437;52.236;5.710;2023-07-28T06:15:43;18.30;99.90
18502;DHT22;68437;52.236;5.710;2023-07-28T06:18:10;18.30;99.90
18502;DHT22;68437;52.236;5.710;2023-07-28T06:20:41;18.30;99.90
18502;DHT22;68437;52.236;5.710;2023-07-28T06:23:08;18.30;99.90
18502;DHT22;68437;52.236;5.710;2023-07-28T06:25:35;18.30;99.90
18502;DHT22;68437;52.236;5.710;2023-07-28T06:28:04;18.40;99.90
18502;DHT22;68437;52.236;5.710;2023-07-28T06:30:31;18.40;99.90
18502;DHT22;68437;52.236;5.710;2023-07-28T06:32:57;18.40;99.90
18502;DHT22;68437;52.236;5.710;2023-07-28T06:35:24;18.40;99.90
18502;DHT22;68437;52.236;5.710;2023-07-28T06:37:54;18.40;99.90
18502;DHT22;68437;52.236;5.710;2023-07-28T06:40:21;18.30;99.90
18502;DHT22;68437;52.236;5.710;2023-07-28T06:42:48;18.40;99.90
18502;DHT22;68437;52.236;5.710;2023-07-28T06:45:15;18.40;99.90
18502;DHT22;68437;52.236;5.710;2023-07-28T06:47:42;18.40;99.90
18502;DHT22;68437;52.236;5.710;2023-07-28T06:50:10;18.40;99.90
18502;DHT22;68437;52.236;5.710;2023-07-28T06:52:37;18.50;99.90
18502;DHT22;68437;52.236;5.710;2023-07-28T06:55:06;18.50;99.90
18502;DHT22;68437;52.236;5.710;2023-07-28T06:57:33;18.60;99.90
18502;DHT22;68437;52.236;5.710;2023-07-28T07:00:02;18.50;99.90
18502;DHT22;68437;52.236;5.710;2023-07-28T07:02:29;18.50;99.90
18502;DHT22;68437;52.236;5.710;2023-07-28T07:04:56;18.50;99.90
18502;DHT22;68437;52.236;5.710;2023-07-28T07:07:23;18.60;99.90
18502;DHT22;68437;52.236;5.710;2023-07-28T07:09:51;18.60;99.90
18502;DHT22;68437;52.236;5.710;2023-07-28T07:12:19;18.60;99.90
18502;DHT22;68437;52.236;5.710;2023-07-28T07:14:48;18.60;99.90
18502;DHT22;68437;52.236;5.710;2023-07-28T07:17:15;18.60;99.90
18502;DHT22;68437;52.236;5.710;2023-07-28T07:19:42;18.60;99.90
18502;DHT22;68437;52.236;5.710;2023-07-28T07:22:08;18.50;99.90
18502;DHT22;68437;52.236;5.710;2023-07-28T07:24:35;18.50;99.90
18502;DHT22;68437;52.236;5.710;2023-07-28T07:27:03;18.50;99.90
18502;DHT22;68437;52.236;5.710;2023-07-28T07:29:31;18.50;99.90
18502;DHT22;68437;52.236;5.710;2023-07-28T07:31:58;18.60;99.90
18502;DHT22;68437;52.236;5.710;2023-07-28T07:34:25;18.50;99.90
18502;DHT22;68437;52.236;5.710;2023-07-28T07:36:52;18.60;99.90
18502;DHT22;68437;52.236;5.710;2023-07-28T07:39:19;18.60;99.90
18502;DHT22;68437;52.236;5.710;2023-07-28T07:41:46;18.70;99.90
18502;DHT22;68437;52.236;5.710;2023-07-28T07:44:13;18.70;99.90
18502;DHT22;68437;52.236;5.710;2023-07-28T07:46:41;18.70;99.90
18502;DHT22;68437;52.236;5.710;2023-07-28T07:49:08;18.70;99.90
18502;DHT22;68437;52.236;5.710;2023-07-28T07:51:35;18.70;99.90
18502;DHT22;68437;52.236;5.710;2023-07-28T07:54:02;18.70;99.90
18502;DHT22;68437;52.236;5.710;2023-07-28T07:56:29;18.70;99.90
18502;DHT22;68437;52.236;5.710;2023-07-28T07:58:56;18.70;99.90
18502;DHT22;68437;52.236;5.710;2023-07-28T08:01:22;18.70;99.90
18502;DHT22;68437;52.236;5.710;2023-07-28T08:03:51;18.80;99.90
18502;DHT22;68437;52.236;5.710;2023-07-28T08:06:18;18.80;99.90
18502;DHT22;68437;52.236;5.710;2023-07-28T08:08:44;18.80;99.90
18502;DHT22;68437;52.236;5.710;2023-07-28T08:11:11;18.80;99.90
18502;DHT22;68437;52.236;5.710;2023-07-28T08:13:38;18.80;99.90
18502;DHT22;68437;52.236;5.710;2023-07-28T08:16:05;18.90;99.90
18502;DHT22;68437;52.236;5.710;2023-07-28T08:18:32;18.90;99.90
18502;DHT22;68437;52.236;5.710;2023-07-28T08:21:00;18.90;99.90
18502;DHT22;68437;52.236;5.710;2023-07-28T08:23:27;18.90;99.90
18502;DHT22;68437;52.236;5.710;2023-07-28T08:25:54;18.90;99.90
18502;DHT22;68437;52.236;5.710;2023-07-28T08:28:21;19.00;99.90
18502;DHT22;68437;52.236;5.710;2023-07-28T08:30:54;19.00;99.90
18502;DHT22;68437;52.236;5.710;2023-07-28T08:33:22;18.90;99.90
18502;DHT22;68437;52.236;5.710;2023-07-28T08:35:49;19.00;99.90
18502;DHT22;68437;52.236;5.710;2023-07-28T08:38:17;19.00;99.90
18502;DHT22;68437;52.236;5.710;2023-07-28T08:40:44;19.10;99.90
18502;DHT22;68437;52.236;5.710;2023-07-28T08:43:11;19.10;99.90
18502;DHT22;68437;52.236;5.710;2023-07-28T08:45:38;19.20;99.90
18502;DHT22;68437;52.236;5.710;2023-07-28T08:48:05;19.30;99.90
18502;DHT22;68437;52.236;5.710;2023-07-28T08:50:32;19.30;99.90
18502;DHT22;68437;52.236;5.710;2023-07-28T08:52:59;19.50;99.90
18502;DHT22;68437;52.236;5.710;2023-07-28T08:55:28;19.50;99.90
18502;DHT22;68437;52.236;5.710;2023-07-28T08:57:54;19.60;99.90
18502;DHT22;68437;52.236;5.710;2023-07-28T09:00:23;19.80;99.90
18502;DHT22;68437;52.236;5.710;2023-07-28T09:02:51;19.90;99.90
18502;DHT22;68437;52.236;5.710;2023-07-28T09:05:19;20.10;99.90
18502;DHT22;68437;52.236;5.710;2023-07-28T09:07:46;20.10;99.90
18502;DHT22;68437;52.236;5.710;2023-07-28T09:10:13;20.20;99.90
18502;DHT22;68437;52.236;5.710;2023-07-28T09:12:49;20.30;99.90
18502;DHT22;68437;52.236;5.710;2023-07-28T09:15:17;20.20;99.90
18502;DHT22;68437;52.236;5.710;2023-07-28T09:17:44;20.20;99.90
18502;DHT22;68437;52.236;5.710;2023-07-28T09:20:14;20.20;99.90
18502;DHT22;68437;52.236;5.710;2023-07-28T09:22:42;20.20;99.90
18502;DHT22;68437;52.236;5.710;2023-07-28T09:25:13;20.30;99.90
18502;DHT22;68437;52.236;5.710;2023-07-28T09:27:40;20.30;99.90
18502;DHT22;68437;52.236;5.710;2023-07-28T09:30:09;20.30;99.90
18502;DHT22;68437;52.236;5.710;2023-07-28T09:32:46;20.30;99.90
18502;DHT22;68437;52.236;5.710;2023-07-28T09:35:14;20.40;99.90
18502;DHT22;68437;52.236;5.710;2023-07-28T09:37:42;20.50;99.90
18502;DHT22;68437;52.236;5.710;2023-07-28T09:40:11;20.60;99.90
18502;DHT22;68437;52.236;5.710;2023-07-28T09:42:39;20.90;99.90
18502;DHT22;68437;52.236;5.710;2023-07-28T09:45:06;21.10;99.90
18502;DHT22;68437;52.236;5.710;2023-07-28T09:47:35;21.40;99.90
18502;DHT22;68437;52.236;5.710;2023-07-28T09:50:03;21.60;99.90
18502;DHT22;68437;52.236;5.710;2023-07-28T09:52:34;21.80;99.90
18502;DHT22;68437;52.236;5.710;2023-07-28T09:55:05;21.80;99.90
18502;DHT22;68437;52.236;5.710;2023-07-28T09:57:36;22.00;99.90
18502;DHT22;68437;52.236;5.710;2023-07-28T10:00:05;22.10;99.90
18502;DHT22;68437;52.236;5.710;2023-07-28T10:02:36;22.00;99.90
18502;DHT22;68437;52.236;5.710;2023-07-28T10:05:05;22.00;99.90
18502;DHT22;68437;52.236;5.710;2023-07-28T10:07:33;22.20;99.90
18502;DHT22;68437;52.236;5.710;2023-07-28T10:10:02;22.60;99.90
18502;DHT22;68437;52.236;5.710;2023-07-28T10:12:39;22.90;99.90
18502;DHT22;68437;52.236;5.710;2023-07-28T10:15:12;22.90;99.90
18502;DHT22;68437;52.236;5.710;2023-07-28T10:17:44;22.70;99.90
18502;DHT22;68437;52.236;5.710;2023-07-28T10:20:29;22.60;99.90
18502;DHT22;68437;52.236;5.710;2023-07-28T10:23:07;22.20;99.90
18502;DHT22;68437;52.236;5.710;2023-07-28T10:25:36;22.10;99.90
18502;DHT22;68437;52.236;5.710;2023-07-28T10:28:04;21.90;99.90
18502;DHT22;68437;52.236;5.710;2023-07-28T10:30:36;22.00;99.90
18502;DHT22;68437;52.236;5.710;2023-07-28T10:33:05;22.10;99.90
18502;DHT22;68437;52.236;5.710;2023-07-28T10:35:32;22.60;99.90
18502;DHT22;68437;52.236;5.710;2023-07-28T10:38:32;23.00;99.90
18502;DHT22;68437;52.236;5.710;2023-07-28T10:41:11;23.50;99.90
18502;DHT22;68437;52.236;5.710;2023-07-28T10:43:39;24.00;99.90
18502;DHT22;68437;52.236;5.710;2023-07-28T10:46:08;24.40;99.90
18502;DHT22;68437;52.236;5.710;2023-07-28T10:48:41;24.10;99.90
18502;DHT22;68437;52.236;5.710;2023-07-28T10:51:09;23.60;99.90
18502;DHT22;68437;52.236;5.710;2023-07-28T10:53:37;23.60;99.90
18502;DHT22;68437;52.236;5.710;2023-07-28T10:56:04;23.30;99.90
18502;DHT22;68437;52.236;5.710;2023-07-28T10:58:33;23.30;99.90
18502;DHT22;68437;52.236;5.710;2023-07-28T11:01:01;23.60;99.90
18502;DHT22;68437;52.236;5.710;2023-07-28T11:03:28;24.00;99.90
18502;DHT22;68437;52.236;5.710;2023-07-28T11:05:57;23.80;99.90
18502;DHT22;68437;52.236;5.710;2023-07-28T11:08:25;23.50;99.90
18502;DHT22;68437;52.236;5.710;2023-07-28T11:10:52;23.10;99.90
18502;DHT22;68437;52.236;5.710;2023-07-28T11:13:19;23.10;99.90
18502;DHT22;68437;52.236;5.710;2023-07-28T11:15:46;23.50;99.90
18502;DHT22;68437;52.236;5.710;2023-07-28T11:18:19;23.80;99.90
18502;DHT22;68437;52.236;5.710;2023-07-28T11:20:47;23.60;99.90
18502;DHT22;68437;52.236;5.710;2023-07-28T11:23:15;23.40;99.90
18502;DHT22;68437;52.236;5.710;2023-07-28T11:25:44;23.40;99.90
18502;DHT22;68437;52.236;5.710;2023-07-28T11:28:12;23.30;99.90
18502;DHT22;68437;52.236;5.710;2023-07-28T11:30:39;23.20;99.90
18502;DHT22;68437;52.236;5.710;2023-07-28T11:33:09;23.00;99.90
18502;DHT22;68437;52.236;5.710;2023-07-28T11:35:37;22.90;99.90
18502;DHT22;68437;52.236;5.710;2023-07-28T11:38:05;22.80;99.90
18502;DHT22;68437;52.236;5.710;2023-07-28T11:40:33;22.80;99.90
18502;DHT22;68437;52.236;5.710;2023-07-28T11:43:01;22.80;99.90
18502;DHT22;68437;52.236;5.710;2023-07-28T11:45:29;22.80;99.90
18502;DHT22;68437;52.236;5.710;2023-07-28T11:47:57;22.80;99.90
18502;DHT22;68437;52.236;5.710;2023-07-28T11:50:25;23.00;99.90
18502;DHT22;68437;52.236;5.710;2023-07-28T11:52:53;23.30;99.90
18502;DHT22;68437;52.236;5.710;2023-07-28T11:55:20;23.20;99.90
18502;DHT22;68437;52.236;5.710;2023-07-28T11:57:50;23.10;99.90
18502;DHT22;68437;52.236;5.710;2023-07-28T12:00:18;23.20;99.90
18502;DHT22;68437;52.236;5.710;2023-07-28T12:03:01;23.40;99.90
18502;DHT22;68437;52.236;5.710;2023-07-28T12:05:29;23.30;99.90
18502;DHT22;68437;52.236;5.710;2023-07-28T12:07:56;23.40;99.90
18502;DHT22;68437;52.236;5.710;2023-07-28T12:10:23;23.30;99.90
18502;DHT22;68437;52.236;5.710;2023-07-28T12:12:51;23.60;99.90
18502;DHT22;68437;52.236;5.710;2023-07-28T12:15:20;23.60;99.90
18502;DHT22;68437;52.236;5.710;2023-07-28T12:18:10;23.60;99.90
18502;DHT22;68437;52.236;5.710;2023-07-28T12:20:39;23.30;99.90
18502;DHT22;68437;52.236;5.710;2023-07-28T12:23:07;22.80;99.90
18502;DHT22;68437;52.236;5.710;2023-07-28T12:25:36;22.40;99.90
18502;DHT22;68437;52.236;5.710;2023-07-28T12:28:04;22.00;99.90
18502;DHT22;68437;52.236;5.710;2023-07-28T12:30:32;21.70;99.90
18502;DHT22;68437;52.236;5.710;2023-07-28T12:32:59;21.50;99.90
18502;DHT22;68437;52.236;5.710;2023-07-28T12:35:26;21.40;99.90
18502;DHT22;68437;52.236;5.710;2023-07-28T12:37:56;21.40;99.90
18502;DHT22;68437;52.236;5.710;2023-07-28T12:40:25;21.60;99.90
18502;DHT22;68437;52.236;5.710;2023-07-28T12:42:52;21.70;99.90
18502;DHT22;68437;52.236;5.710;2023-07-28T12:45:21;21.80;99.90
18502;DHT22;68437;52.236;5.710;2023-07-28T12:47:51;21.80;99.90
18502;DHT22;68437;52.236;5.710;2023-07-28T12:50:18;21.80;99.90
18502;DHT22;68437;52.236;5.710;2023-07-28T12:52:46;21.70;99.90
18502;DHT22;68437;52.236;5.710;2023-07-28T12:55:13;21.60;99.90
18502;DHT22;68437;52.236;5.710;2023-07-28T12:57:40;21.70;99.90
18502;DHT22;68437;52.236;5.710;2023-07-28T13:00:08;21.70;99.90
18502;DHT22;68437;52.236;5.710;2023-07-28T13:02:40;21.80;99.90
18502;DHT22;68437;52.236;5.710;2023-07-28T13:05:08;21.90;99.90
18502;DHT22;68437;52.236;5.710;2023-07-28T13:07:38;22.10;99.90
18502;DHT22;68437;52.236;5.710;2023-07-28T13:10:07;22.60;99.90
18502;DHT22;68437;52.236;5.710;2023-07-28T13:12:35;23.00;99.90
18502;DHT22;68437;52.236;5.710;2023-07-28T13:15:02;23.00;99.90
18502;DHT22;68437;52.236;5.710;2023-07-28T13:17:29;22.90;99.90
18502;DHT22;68437;52.236;5.710;2023-07-28T13:19:58;23.00;99.90
18502;DHT22;68437;52.236;5.710;2023-07-28T13:22:24;23.20;99.90
18502;DHT22;68437;52.236;5.710;2023-07-28T13:24:52;23.30;99.90
18502;DHT22;68437;52.236;5.710;2023-07-28T13:27:19;23.50;99.90
18502;DHT22;68437;52.236;5.710;2023-07-28T13:29:46;23.80;99.90
18502;DHT22;68437;52.236;5.710;2023-07-28T13:32:17;24.00;99.90
18502;DHT22;68437;52.236;5.710;2023-07-28T13:34:44;24.30;99.90
18502;DHT22;68437;52.236;5.710;2023-07-28T13:37:13;24.30;99.90
18502;DHT22;68437;52.236;5.710;2023-07-28T13:39:40;24.10;99.90
18502;DHT22;68437;52.236;5.710;2023-07-28T13:42:07;23.80;99.90
18502;DHT22;68437;52.236;5.710;2023-07-28T13:44:34;23.60;99.90
18502;DHT22;68437;52.236;5.710;2023-07-28T13:47:01;23.60;99.90
18502;DHT22;68437;52.236;5.710;2023-07-28T13:49:28;23.70;99.90
18502;DHT22;68437;52.236;5.710;2023-07-28T13:51:55;23.90;99.90
18502;DHT22;68437;52.236;5.710;2023-07-28T13:54:23;23.90;99.90
18502;DHT22;68437;52.236;5.710;2023-07-28T13:56:50;23.90;99.90
18502;DHT22;68437;52.236;5.710;2023-07-28T13:59:17;23.90;99.90
18502;DHT22;68437;52.236;5.710;2023-07-28T14:01:44;23.80;99.90
18502;DHT22;68437;52.236;5.710;2023-07-28T14:04:11;23.60;99.90
18502;DHT22;68437;52.236;5.710;2023-07-28T14:06:39;23.60;99.90
18502;DHT22;68437;52.236;5.710;2023-07-28T14:09:06;23.80;99.90
18502;DHT22;68437;52.236;5.710;2023-07-28T14:11:34;24.10;99.90
18502;DHT22;68437;52.236;5.710;2023-07-28T14:14:01;24.40;99.90
18502;DHT22;68437;52.236;5.710;2023-07-28T14:16:28;24.50;99.90
18502;DHT22;68437;52.236;5.710;2023-07-28T14:18:55;24.60;99.90
18502;DHT22;68437;52.236;5.710;2023-07-28T14:21:22;24.50;99.90
18502;DHT22;68437;52.236;5.710;2023-07-28T14:23:49;24.10;99.90
18502;DHT22;68437;52.236;5.710;2023-07-28T14:26:16;23.80;99.90
18502;DHT22;68437;52.236;5.710;2023-07-28T14:28:44;23.60;99.90
18502;DHT22;68437;52.236;5.710;2023-07-28T14:31:11;23.60;99.90
18502;DHT22;68437;52.236;5.710;2023-07-28T14:33:38;23.70;99.90
18502;DHT22;68437;52.236;5.710;2023-07-28T14:36:05;23.90;99.90
18502;DHT22;68437;52.236;5.710;2023-07-28T14:38:32;24.00;99.90
18502;DHT22;68437;52.236;5.710;2023-07-28T14:40:58;24.00;99.90
18502;DHT22;68437;52.236;5.710;2023-07-28T14:43:25;24.10;99.90
18502;DHT22;68437;52.236;5.710;2023-07-28T14:45:54;24.20;99.90
18502;DHT22;68437;52.236;5.710;2023-07-28T14:48:21;24.30;99.90
18502;DHT22;68437;52.236;5.710;2023-07-28T14:50:48;24.50;99.90
18502;DHT22;68437;52.236;5.710;2023-07-28T14:53:34;24.50;99.90
18502;DHT22;68437;52.236;5.710;2023-07-28T14:56:03;24.30;99.90
18502;DHT22;68437;52.236;5.710;2023-07-28T14:58:31;24.10;99.90
18502;DHT22;68437;52.236;5.710;2023-07-28T15:01:00;23.90;99.90
18502;DHT22;68437;52.236;5.710;2023-07-28T15:03:28;23.80;99.90
18502;DHT22;68437;52.236;5.710;2023-07-28T15:05:57;23.70;99.90
18502;DHT22;68437;52.236;5.710;2023-07-28T15:08:24;23.90;99.90
18502;DHT22;68437;52.236;5.710;2023-07-28T15:10:51;24.20;99.90
18502;DHT22;68437;52.236;5.710;2023-07-28T15:13:18;24.20;99.90
18502;DHT22;68437;52.236;5.710;2023-07-28T15:15:45;24.30;99.90
18502;DHT22;68437;52.236;5.710;2023-07-28T15:18:14;24.20;99.90
18502;DHT22;68437;52.236;5.710;2023-07-28T15:20:41;24.10;99.90
18502;DHT22;68437;52.236;5.710;2023-07-28T15:23:08;24.10;99.90
18502;DHT22;68437;52.236;5.710;2023-07-28T15:25:36;24.10;99.90
18502;DHT22;68437;52.236;5.710;2023-07-28T15:30:35;23.80;99.90
18502;DHT22;68437;52.236;5.710;2023-07-28T15:33:02;23.70;99.90
18502;DHT22;68437;52.236;5.710;2023-07-28T15:35:30;23.60;99.90
18502;DHT22;68437;52.236;5.710;2023-07-28T15:37:57;23.50;99.90